Time;durP1;ratioP1;P1;durP2;ratioP2;P2;SDS_P1;SDS_P2;PMS_P1;PMS_P2;Temp;Humidity;BMP_temperature;BMP_pressure;BME280_temperature;BME280_humidity;BME280_pressure;Samples;Min_cycle;Max_cycle;Signal;HPM_P1;HPM_P2
2021/08/30 00:01:07;;;;;;;5.93;4.60;;;;;;;11.11;100.00;97720.19;5073252;28;20024;-77
2021/08/30 00:03:32;;;;;;;7.22;4.13;;;;;;;11.16;100.00;97725.53;5072912;28;20124;-78
2021/08/30 00:05:58;;;;;;;6.70;4.53;;;;;;;11.25;100.00;97707.28;5063032;28;20467;-79
2021/08/30 00:08:23;;;;;;;4.20;3.20;;;;;;;11.25;100.00;97707.28;5053583;28;20025;-81
2021/08/30 00:10:48;;;;;;;5.70;3.85;;;;;;;11.23;100.00;97691.16;5039900;28;20037;-80
2021/08/30 00:13:14;;;;;;;4.20;3.08;;;;;;;11.41;100.00;97710.50;5072867;28;20075;-79
2021/08/30 00:15:39;;;;;;;3.38;2.85;;;;;;;11.43;100.00;97709.09;5073303;28;20524;-77
2021/08/30 00:18:06;;;;;;;4.93;2.83;;;;;;;11.40;100.00;97717.13;5073176;28;20028;-78
2021/08/30 00:20:32;;;;;;;5.13;3.25;;;;;;;11.10;100.00;97697.47;5054992;28;20127;-83
2021/08/30 00:22:57;;;;;;;5.75;2.65;;;;;;;11.12;100.00;97702.66;5060739;28;20867;-80
2021/08/30 00:25:26;;;;;;;6.03;2.75;;;;;;;11.18;100.00;97718.63;5073375;28;20074;-81
2021/08/30 00:27:51;;;;;;;6.32;3.70;;;;;;;10.97;100.00;97703.75;5055398;28;20039;-78
2021/08/30 00:30:16;;;;;;;5.07;3.42;;;;;;;10.93;100.00;97713.66;5073187;28;20741;-76
2021/08/30 00:32:42;;;;;;;8.23;4.30;;;;;;;10.90;100.00;97722.47;5073150;28;20466;-78
2021/08/30 00:35:08;;;;;;;6.00;3.45;;;;;;;10.94;100.00;97718.03;5072951;28;20090;-79
2021/08/30 00:37:37;;;;;;;6.50;4.65;;;;;;;10.82;100.00;97719.66;5073288;28;20119;-76
2021/08/30 00:40:05;;;;;;;7.60;4.88;;;;;;;10.84;100.00;97712.75;5071032;28;20078;-81
2021/08/30 00:42:31;;;;;;;6.53;4.90;;;;;;;11.00;100.00;97702.31;5054419;28;20028;-80
2021/08/30 00:44:56;;;;;;;8.25;6.65;;;;;;;10.77;100.00;97691.25;5072761;28;20019;-82
2021/08/30 00:47:25;;;;;;;8.35;5.88;;;;;;;10.65;100.00;97709.31;5054746;28;20082;-81
2021/08/30 00:49:56;;;;;;;9.05;7.10;;;;;;;10.55;100.00;97710.31;5072571;28;20048;-78
2021/08/30 00:52:22;;;;;;;8.82;6.68;;;;;;;10.66;100.00;97714.47;5070305;28;20101;-79
2021/08/30 00:54:48;;;;;;;11.43;7.15;;;;;;;10.55;100.00;97701.28;5071517;28;20122;-79
2021/08/30 00:57:17;;;;;;;4.57;3.47;;;;;;;10.38;100.00;97712.78;5071667;28;20469;-77
2021/08/30 00:59:42;;;;;;;4.18;2.97;;;;;;;10.29;100.00;97705.56;5070362;28;20039;-79
2021/08/30 01:02:09;;;;;;;5.13;3.10;;;;;;;10.51;100.00;97719.41;5072662;28;20020;-81
2021/08/30 01:04:36;;;;;;;2.92;2.35;;;;;;;10.40;100.00;97723.44;5069884;28;20412;-78
2021/08/30 01:07:07;;;;;;;4.93;3.47;;;;;;;10.55;100.00;97721.25;5072198;28;20035;-78
2021/08/30 01:09:44;;;;;;;3.67;3.10;;;;;;;10.38;100.00;97714.69;5054615;28;20035;-77
2021/08/30 01:12:15;;;;;;;16.05;4.40;;;;;;;10.46;100.00;97709.34;5075245;28;20016;-77
2021/08/30 01:14:56;;;;;;;4.40;3.45;;;;;;;10.39;100.00;97697.19;5060705;28;20028;-78
2021/08/30 01:17:23;;;;;;;5.97;3.75;;;;;;;10.49;100.00;97700.56;5074508;28;20111;-77
2021/08/30 01:19:59;;;;;;;4.68;3.40;;;;;;;10.52;100.00;97704.63;5052857;28;20037;-77
2021/08/30 01:22:26;;;;;;;5.32;3.42;;;;;;;10.72;100.00;97710.53;5060952;28;20466;-77
2021/08/30 01:24:54;;;;;;;4.43;3.63;;;;;;;10.62;100.00;97688.81;5074119;28;20028;-76
2021/08/30 01:27:20;;;;;;;6.20;4.55;;;;;;;10.85;100.00;97719.84;5055516;28;20024;-79
2021/08/30 01:30:00;;;;;;;6.32;4.53;;;;;;;10.85;100.00;97725.31;5076298;28;20035;-80
2021/08/30 01:32:42;;;;;;;7.78;4.40;;;;;;;10.55;100.00;97732.19;5057716;28;20044;-79
2021/08/30 01:35:14;;;;;;;4.63;3.55;;;;;;;10.39;100.00;97730.81;5073382;28;20372;-80
2021/08/30 01:37:42;;;;;;;6.57;4.38;;;;;;;10.52;100.00;97726.50;5072324;28;20796;-78
2021/08/30 01:40:10;;;;;;;5.80;3.75;;;;;;;10.79;100.00;97736.66;5054396;28;20025;-77
2021/08/30 01:42:38;;;;;;;5.93;4.65;;;;;;;10.63;100.00;97728.75;5071571;28;20039;-77
2021/08/30 01:45:07;;;;;;;4.82;4.28;;;;;;;10.56;100.00;97727.50;5070898;28;20017;-80
2021/08/30 01:47:34;;;;;;;7.70;4.10;;;;;;;10.45;100.00;97724.16;5071401;28;20032;-78
2021/08/30 01:50:03;;;;;;;5.97;4.05;;;;;;;10.39;100.00;97727.28;5070988;28;20594;-78
2021/08/30 01:52:38;;;;;;;7.88;5.50;;;;;;;10.40;100.00;97721.47;5072032;28;20025;-78
2021/08/30 02:00:42;;;;;;;10.00;6.43;;;;;;;10.45;100.00;97715.94;5073448;28;20024;-79
2021/08/30 02:03:19;;;;;;;8.57;5.80;;;;;;;10.37;100.00;97724.81;5071773;28;20028;-77
2021/08/30 02:05:49;;;;;;;7.07;4.97;;;;;;;10.28;100.00;97732.09;5071811;28;20029;-79
2021/08/30 02:08:16;;;;;;;7.68;5.13;;;;;;;10.34;100.00;97725.41;5071377;28;20035;-80
2021/08/30 02:10:47;;;;;;;7.55;4.80;;;;;;;10.36;100.00;97728.69;5071321;28;20372;-81
2021/08/30 02:13:14;;;;;;;10.95;5.43;;;;;;;10.42;100.00;97722.03;5071610;28;20107;-78
2021/08/30 02:15:45;;;;;;;8.13;5.00;;;;;;;10.61;100.00;97722.78;5071701;28;20047;-79
2021/08/30 02:18:39;;;;;;;9.73;4.57;;;;;;;10.66;100.00;97717.19;5053644;28;20162;-78
2021/08/30 02:21:35;;;;;;;6.15;4.25;;;;;;;10.58;100.00;97708.88;5075378;28;20029;-81
2021/08/30 02:24:32;;;;;;;5.32;4.00;;;;;;;10.60;100.00;97710.19;5054142;28;20078;-79
2021/08/30 02:27:19;;;;;;;8.25;6.05;;;;;;;10.44;100.00;97705.28;5071558;28;20028;-81
2021/08/30 02:29:48;;;;;;;16.65;10.80;;;;;;;10.40;100.00;97691.41;5071978;28;20040;-80
2021/08/30 02:32:15;;;;;;;21.33;12.68;;;;;;;10.21;100.00;97687.94;5071626;28;20060;-78
2021/08/30 02:34:48;;;;;;;15.60;10.82;;;;;;;10.18;100.00;97689.34;5071453;28;20024;-79
2021/08/30 02:37:14;;;;;;;18.77;10.95;;;;;;;10.13;100.00;97681.22;5072560;28;20062;-80
2021/08/30 02:39:47;;;;;;;16.25;10.63;;;;;;;10.22;100.00;97689.53;5056888;28;20032;-81
2021/08/30 02:42:13;;;;;;;21.02;10.48;;;;;;;10.36;100.00;97686.88;5056903;28;20028;-79
2021/08/30 02:44:39;;;;;;;15.68;10.77;;;;;;;10.31;100.00;97682.28;5072500;28;20408;-80
2021/08/30 02:47:06;;;;;;;15.52;9.85;;;;;;;10.26;100.00;97668.72;5071139;28;20107;-80
2021/08/30 02:49:31;;;;;;;13.88;9.52;;;;;;;10.20;100.00;97668.00;5071004;28;20082;-78
2021/08/30 02:52:04;;;;;;;16.42;8.48;;;;;;;10.21;100.00;97655.16;5069590;28;20072;-81
2021/08/30 02:54:30;;;;;;;14.98;7.80;;;;;;;10.27;100.00;97670.34;5071450;28;20033;-80
2021/08/30 02:56:56;;;;;;;12.00;7.75;;;;;;;10.46;100.00;97673.00;5071293;28;20016;-80
2021/08/30 02:59:23;;;;;;;11.55;6.85;;;;;;;10.51;100.00;97671.00;5053397;28;20025;-81
2021/08/30 03:01:49;;;;;;;10.00;6.40;;;;;;;10.44;100.00;97665.09;5070725;28;20024;-81
2021/08/30 03:04:14;;;;;;;10.40;6.05;;;;;;;10.45;100.00;97676.84;5052943;28;20027;-80
2021/08/30 03:06:41;;;;;;;9.75;7.55;;;;;;;10.60;100.00;97673.81;5070871;28;20024;-79
2021/08/30 03:09:07;;;;;;;8.60;6.22;;;;;;;10.54;100.00;97673.13;5054508;28;20416;-78
2021/08/30 03:11:35;;;;;;;8.23;5.25;;;;;;;10.69;100.00;97683.78;5071605;28;20036;-80
2021/08/30 03:14:01;;;;;;;6.90;5.25;;;;;;;10.59;100.00;97678.47;5070999;28;20081;-79
2021/08/30 03:16:28;;;;;;;8.45;6.00;;;;;;;10.50;100.00;97680.28;5052730;28;20025;-77
2021/08/30 03:18:56;;;;;;;7.95;6.03;;;;;;;10.55;100.00;97679.41;5070688;28;20061;-79
2021/08/30 03:21:24;;;;;;;8.50;6.25;;;;;;;10.54;100.00;97664.91;5054858;28;20483;-78
2021/08/30 03:23:52;;;;;;;8.57;6.25;;;;;;;10.67;100.00;97674.25;5057940;28;20032;-78
2021/08/30 03:26:18;;;;;;;8.40;5.57;;;;;;;10.67;100.00;97671.50;5074970;28;20111;-79
2021/08/30 03:28:44;;;;;;;8.65;5.70;;;;;;;10.73;100.00;97687.53;5076622;28;20036;-78
2021/08/30 03:31:10;;;;;;;6.57;5.50;;;;;;;10.80;100.00;97680.84;5077119;28;20025;-79
2021/08/30 03:33:36;;;;;;;9.85;6.20;;;;;;;10.65;100.00;97679.22;5077542;28;20025;-77
2021/08/30 03:36:02;;;;;;;9.25;6.22;;;;;;;10.59;100.00;97673.00;5074690;28;20024;-81
2021/08/30 03:38:28;;;;;;;9.32;5.82;;;;;;;10.66;100.00;97675.34;5074508;28;20020;-79
2021/08/30 03:40:54;;;;;;;8.32;5.40;;;;;;;10.60;100.00;97671.91;5056603;28;20112;-80
2021/08/30 03:43:20;;;;;;;11.43;5.82;;;;;;;10.51;100.00;97665.53;5056540;28;20060;-78
2021/08/30 03:45:46;;;;;;;7.63;5.50;;;;;;;10.57;100.00;97669.78;5074350;28;20107;-78
2021/08/30 03:48:15;;;;;;;6.93;6.00;;;;;;;10.57;100.00;97664.31;5074481;28;20060;-77
2021/08/30 03:50:41;;;;;;;6.32;5.43;;;;;;;10.57;100.00;97664.31;5074256;28;20056;-79
2021/08/30 03:53:07;;;;;;;5.65;4.75;;;;;;;10.58;100.00;97668.69;5074250;28;20039;-79
2021/08/30 03:55:33;;;;;;;8.98;6.32;;;;;;;10.62;100.00;97677.06;5055858;28;20028;-79
2021/08/30 03:58:00;;;;;;;8.02;6.70;;;;;;;10.71;100.00;97675.28;5074915;28;20063;-79
2021/08/30 04:00:26;;;;;;;8.98;6.45;;;;;;;10.60;100.00;97673.81;5073900;28;20361;-77
2021/08/30 04:02:55;;;;;;;8.85;6.60;;;;;;;10.49;100.00;97672.41;5075583;28;20082;-78
2021/08/30 04:05:23;;;;;;;10.38;6.93;;;;;;;10.43;100.00;97681.81;5074473;28;20063;-78
2021/08/30 04:07:51;;;;;;;9.30;7.05;;;;;;;10.46;100.00;97684.75;5056273;28;20048;-79
2021/08/30 04:10:17;;;;;;;8.75;6.55;;;;;;;10.51;100.00;97681.94;5073736;28;20031;-78
2021/08/30 04:12:44;;;;;;;9.00;6.72;;;;;;;10.66;100.00;97691.75;5074093;28;20020;-77
2021/08/30 04:15:10;;;;;;;8.88;6.88;;;;;;;10.82;100.00;97690.38;5055847;28;20032;-77
2021/08/30 04:17:36;;;;;;;9.20;7.43;;;;;;;10.85;100.00;97673.34;5073949;28;20032;-79
2021/08/30 04:20:02;;;;;;;8.43;7.07;;;;;;;11.01;100.00;97673.84;5073660;28;20036;-78
2021/08/30 04:22:27;;;;;;;11.30;7.88;;;;;;;10.81;100.00;97674.28;5055817;28;20111;-81
2021/08/30 04:24:53;;;;;;;8.82;7.00;;;;;;;10.82;100.00;97684.06;5072062;28;20085;-77
2021/08/30 04:27:18;;;;;;;9.13;6.47;;;;;;;11.10;100.00;97685.69;5072838;28;20115;-77
2021/08/30 04:29:44;;;;;;;9.02;7.80;;;;;;;11.14;100.00;97690.28;5073314;28;20033;-78
2021/08/30 04:32:10;;;;;;;7.70;6.32;;;;;;;11.09;100.00;97686.81;5072283;28;20031;-81
2021/08/30 04:34:37;;;;;;;8.82;7.03;;;;;;;11.11;100.00;97685.41;5072851;28;20541;-78
2021/08/30 04:37:03;;;;;;;9.43;6.40;;;;;;;11.11;100.00;97688.16;5055282;28;20025;-80
2021/08/30 04:39:28;;;;;;;9.38;6.55;;;;;;;11.41;100.00;97699.56;5073586;28;20032;-76
2021/08/30 04:41:54;;;;;;;7.82;6.15;;;;;;;11.52;100.00;97696.31;5055344;28;20396;-78
2021/08/30 04:44:19;;;;;;;7.43;5.88;;;;;;;11.44;100.00;97699.75;5055210;28;20032;-77
2021/08/30 04:46:45;;;;;;;8.43;6.95;;;;;;;11.24;100.00;97705.69;5072638;28;20036;-79
2021/08/30 04:49:10;;;;;;;10.60;6.80;;;;;;;11.12;100.00;97702.66;5074392;28;20024;-79
2021/08/30 04:51:36;;;;;;;12.68;7.95;;;;;;;11.15;100.00;97696.56;5077682;28;20031;-79
2021/08/30 04:54:01;;;;;;;9.85;7.07;;;;;;;11.01;100.00;97690.25;5073238;28;20024;-80
2021/08/30 04:56:27;;;;;;;10.48;7.63;;;;;;;10.96;100.00;97706.81;5073383;28;20028;-78
2021/08/30 04:58:52;;;;;;;10.60;7.43;;;;;;;10.89;100.00;97701.72;5073317;28;20033;-78
2021/08/30 05:01:18;;;;;;;9.10;7.45;;;;;;;10.92;100.00;97703.84;5072667;28;20017;-79
2021/08/30 05:03:43;;;;;;;9.77;7.03;;;;;;;10.77;100.00;97695.13;5055374;28;20036;-78
2021/08/30 05:06:08;;;;;;;9.93;7.28;;;;;;;10.94;100.00;97725.44;5073162;28;20030;-78
2021/08/30 05:08:34;;;;;;;8.73;6.85;;;;;;;11.13;100.00;97720.66;5054862;28;20048;-78
2021/08/30 05:10:59;;;;;;;8.40;6.47;;;;;;;11.09;100.00;97708.69;5072520;28;20059;-80
2021/08/30 05:13:26;;;;;;;11.43;7.97;;;;;;;11.05;100.00;97713.19;5073203;28;20107;-78
2021/08/30 05:15:51;;;;;;;8.32;7.07;;;;;;;11.00;100.00;97711.34;5073732;28;20510;-80
2021/08/30 05:18:17;;;;;;;11.65;8.00;;;;;;;11.00;100.00;97716.00;5073853;28;20112;-78
2021/08/30 05:20:42;;;;;;;8.50;7.28;;;;;;;11.09;100.00;97719.66;5056010;28;20115;-77
2021/08/30 05:23:08;;;;;;;9.27;7.55;;;;;;;11.47;100.00;97732.00;5073415;28;20108;-78
2021/08/30 05:25:33;;;;;;;9.63;7.25;;;;;;;11.47;100.00;97729.25;5072758;28;20481;-79
2021/08/30 05:27:59;;;;;;;8.07;6.75;;;;;;;11.33;100.00;97709.31;5055200;28;20028;-80
2021/08/30 05:30:24;;;;;;;10.73;5.82;;;;;;;11.27;100.00;97721.50;5071907;28;20029;-79
2021/08/30 05:32:50;;;;;;;7.15;5.90;;;;;;;11.28;100.00;97723.09;5072518;28;20020;-78
2021/08/30 05:35:15;;;;;;;7.30;6.45;;;;;;;11.24;100.00;97722.88;5054230;28;20051;-78
2021/08/30 05:37:41;;;;;;;8.27;6.68;;;;;;;11.06;100.00;97718.34;5054170;28;20037;-79
2021/08/30 05:40:07;;;;;;;8.38;6.72;;;;;;;11.18;100.00;97712.38;5071968;28;20033;-77
2021/08/30 05:42:32;;;;;;;9.27;6.13;;;;;;;11.31;100.00;97717.00;5053697;28;20062;-78
2021/08/30 05:44:58;;;;;;;7.72;6.43;;;;;;;11.50;100.00;97709.47;5071649;28;20017;-77
2021/08/30 05:47:23;;;;;;;9.68;6.57;;;;;;;11.42;100.00;97718.44;5073217;28;20108;-82
2021/08/30 05:49:49;;;;;;;8.63;6.88;;;;;;;11.44;100.00;97704.41;5073853;28;20435;-77
2021/08/30 05:52:14;;;;;;;8.93;6.80;;;;;;;11.46;100.00;97702.19;5072343;28;20031;-79
2021/08/30 05:54:40;;;;;;;9.70;6.55;;;;;;;11.62;100.00;97700.75;5054194;28;20028;-79
2021/08/30 05:57:05;;;;;;;7.35;6.30;;;;;;;11.81;100.00;97688.53;5071497;28;20047;-78
2021/08/30 05:59:31;;;;;;;9.23;6.65;;;;;;;11.75;100.00;97689.75;5071931;28;20532;-78
2021/08/30 06:01:56;;;;;;;14.77;6.85;;;;;;;11.78;100.00;97696.53;5071912;28;20498;-79
2021/08/30 06:04:22;;;;;;;8.82;6.55;;;;;;;11.90;100.00;97702.31;5071682;28;20555;-79
2021/08/30 06:06:47;;;;;;;8.38;5.93;;;;;;;12.07;100.00;97707.09;5053551;28;20074;-81
2021/08/30 06:09:13;;;;;;;10.10;7.82;;;;;;;11.94;100.00;97705.22;5071512;28;20017;-77
2021/08/30 06:11:38;;;;;;;8.80;6.63;;;;;;;11.94;100.00;97699.75;5071449;28;20029;-79
2021/08/30 06:14:04;;;;;;;14.45;8.20;;;;;;;12.12;100.00;97715.22;5071651;28;20023;-79
2021/08/30 06:16:29;;;;;;;15.15;7.57;;;;;;;12.31;100.00;97713.09;5071747;28;20089;-77
2021/08/30 06:18:55;;;;;;;9.07;7.30;;;;;;;12.17;100.00;97704.13;5071392;28;20089;-80
2021/08/30 06:21:20;;;;;;;10.18;6.82;;;;;;;12.61;100.00;97717.81;5055623;28;20029;-79
2021/08/30 06:23:46;;;;;;;11.23;8.15;;;;;;;12.47;98.95;97695.13;5074142;28;20004;-81
2021/08/30 06:26:11;;;;;;;10.13;7.28;;;;;;;12.43;98.59;97707.88;5077173;28;20111;-77
2021/08/30 06:28:36;;;;;;;11.88;8.18;;;;;;;12.27;100.00;97721.16;5071972;28;20069;-78
2021/08/30 06:31:02;;;;;;;13.93;7.07;;;;;;;12.47;99.43;97713.53;5071771;28;20503;-81
2021/08/30 06:33:28;;;;;;;8.38;6.28;;;;;;;12.22;100.00;97715.78;5053287;28;20111;-76
2021/08/30 06:35:53;;;;;;;13.75;7.22;;;;;;;12.18;100.00;97705.75;5071561;28;20476;-76
2021/08/30 06:38:18;;;;;;;10.00;6.60;;;;;;;12.30;99.10;97723.28;5071345;28;20021;-77
2021/08/30 06:40:44;;;;;;;10.02;7.25;;;;;;;12.21;100.00;97708.69;5055570;28;20058;-77
2021/08/30 06:43:09;;;;;;;10.93;5.80;;;;;;;12.34;99.40;97709.75;5053641;28;20030;-77
2021/08/30 06:45:35;;;;;;;8.75;6.32;;;;;;;12.48;99.43;97706.91;5071244;28;20051;-78
2021/08/30 06:48:01;;;;;;;11.15;6.30;;;;;;;12.54;98.95;97700.97;5070693;28;20498;-78
2021/08/30 06:50:26;;;;;;;8.90;5.88;;;;;;;12.81;98.29;97695.31;5071054;28;20098;-79
2021/08/30 06:52:53;;;;;;;8.40;6.65;;;;;;;12.81;97.06;97689.03;5053163;28;20028;-77
2021/08/30 06:55:19;;;;;;;13.90;6.50;;;;;;;13.22;95.19;97684.00;5051930;28;20108;-78
2021/08/30 06:57:47;;;;;;;9.73;6.93;;;;;;;13.67;92.77;97709.34;5070801;28;20024;-78
2021/08/30 07:00:13;;;;;;;15.63;6.95;;;;;;;13.33;91.24;97707.34;5071558;28;20025;-78
2021/08/30 07:02:38;;;;;;;8.05;6.03;;;;;;;13.45;91.82;97714.13;5071854;28;20021;-78
2021/08/30 07:05:04;;;;;;;13.00;6.55;;;;;;;13.60;89.62;97711.75;5071169;28;20055;-79
2021/08/30 07:07:29;;;;;;;7.95;7.03;;;;;;;14.09;86.92;97704.19;5054659;28;20090;-77
2021/08/30 07:09:55;;;;;;;9.25;5.97;;;;;;;13.63;88.28;97705.59;5060060;28;20517;-77
2021/08/30 07:12:20;;;;;;;12.23;6.78;;;;;;;13.47;89.03;97693.44;5072201;28;20028;-77
2021/08/30 07:14:46;;;;;;;10.05;6.97;;;;;;;14.23;86.50;97702.06;5071233;28;20116;-77
2021/08/30 07:17:12;;;;;;;11.75;6.82;;;;;;;13.83;86.42;97691.25;5070688;28;20028;-78
2021/08/30 07:19:37;;;;;;;11.48;6.47;;;;;;;14.03;86.23;97700.00;5070617;28;20036;-77
2021/08/30 07:22:04;;;;;;;10.55;6.75;;;;;;;14.62;83.11;97703.81;5070614;28;20043;-78
2021/08/30 07:24:30;;;;;;;10.85;6.38;;;;;;;14.85;82.43;97703.25;5070337;28;20111;-79
2021/08/30 07:26:56;;;;;;;9.48;6.70;;;;;;;15.29;78.84;97710.22;5070188;28;20150;-77
2021/08/30 07:29:21;;;;;;;10.80;6.65;;;;;;;16.34;74.53;97709.19;5070615;28;20021;-80
2021/08/30 07:31:47;;;;;;;9.93;6.63;;;;;;;16.38;73.34;97699.09;5070540;28;20020;-79
2021/08/30 07:34:12;;;;;;;13.35;6.93;;;;;;;16.59;72.24;97705.41;5070478;28;20020;-78
2021/08/30 07:36:38;;;;;;;7.05;5.30;;;;;;;16.67;71.69;97711.97;5070800;28;20484;-79
2021/08/30 07:39:04;;;;;;;10.38;5.43;;;;;;;17.64;67.42;97696.31;5052619;28;20035;-79
2021/08/30 07:41:30;;;;;;;7.63;5.45;;;;;;;20.24;59.16;97718.34;5070561;28;20021;-79
2021/08/30 07:43:57;;;;;;;11.50;5.90;;;;;;;19.44;60.62;97715.31;5070659;28;20044;-80
2021/08/30 07:46:25;;;;;;;6.78;5.35;;;;;;;18.05;65.29;97711.81;5071960;28;20025;-78
2021/08/30 07:48:53;;;;;;;7.55;5.47;;;;;;;20.11;58.42;97713.31;5053059;28;20110;-77
2021/08/30 07:51:20;;;;;;;8.95;5.32;;;;;;;18.24;63.81;97702.88;5069125;28;20049;-79
2021/08/30 07:53:46;;;;;;;6.65;5.45;;;;;;;18.97;61.96;97712.50;5071261;28;20028;-78
2021/08/30 07:56:12;;;;;;;6.38;5.10;;;;;;;19.24;61.63;97719.94;5070648;28;20093;-77
2021/08/30 07:58:37;;;;;;;8.55;5.85;;;;;;;19.18;60.83;97717.78;5072348;28;20473;-78
2021/08/30 08:01:03;;;;;;;8.88;4.78;;;;;;;18.73;61.96;97716.19;5072070;28;20058;-78
2021/08/30 08:03:28;;;;;;;5.65;5.13;;;;;;;18.39;64.48;97711.25;5052920;28;20020;-77
2021/08/30 08:05:54;;;;;;;9.68;5.35;;;;;;;20.54;58.36;97723.38;5071245;28;20037;-79
2021/08/30 08:08:20;;;;;;;8.20;5.65;;;;;;;21.43;54.00;97723.06;5056677;28;20035;-76
2021/08/30 08:10:45;;;;;;;5.40;4.80;;;;;;;19.93;58.18;97712.91;5055712;28;20034;-78
2021/08/30 08:13:11;;;;;;;4.88;4.38;;;;;;;19.62;58.97;97726.84;5074539;28;20074;-77
2021/08/30 08:15:38;;;;;;;5.85;4.88;;;;;;;19.93;58.69;97717.66;5061729;28;20111;-78
2021/08/30 08:18:06;;;;;;;6.53;4.70;;;;;;;19.83;58.67;97730.13;5076891;28;20036;-78
2021/08/30 08:20:32;;;;;;;9.00;5.07;;;;;;;20.18;57.08;97730.94;5075029;28;20092;-78
2021/08/30 08:23:02;;;;;;;6.43;4.82;;;;;;;20.62;56.10;97731.50;5074437;28;20118;-77
2021/08/30 08:25:28;;;;;;;11.65;5.53;;;;;;;20.39;56.87;97724.25;5074073;28;20024;-78
2021/08/30 08:27:54;;;;;;;10.18;5.07;;;;;;;20.20;57.41;97725.03;5073836;28;20392;-78
2021/08/30 08:30:20;;;;;;;7.57;4.90;;;;;;;21.03;55.41;97726.31;5074506;28;20020;-78
2021/08/30 08:32:47;;;;;;;6.05;4.93;;;;;;;20.92;54.98;97722.53;5055793;28;20599;-78
2021/08/30 08:35:13;;;;;;;5.97;4.50;;;;;;;20.49;56.66;97729.22;5073748;28;20481;-78
2021/08/30 08:37:39;;;;;;;7.13;4.15;;;;;;;21.12;55.48;97713.81;5055153;28;20031;-78
2021/08/30 08:40:07;;;;;;;7.68;4.45;;;;;;;22.03;52.71;97730.44;5073685;28;20043;-78
2021/08/30 08:42:35;;;;;;;4.45;3.70;;;;;;;23.68;48.08;97732.81;5074139;28;20032;-78
2021/08/30 08:45:03;;;;;;;6.82;3.97;;;;;;;21.92;51.78;97723.91;5056668;28;20021;-76
2021/08/30 08:47:28;;;;;;;5.63;3.30;;;;;;;22.81;49.03;97723.94;5074471;28;20507;-76
2021/08/30 08:49:54;;;;;;;4.70;3.83;;;;;;;21.60;52.60;97723.38;5072641;28;20044;-78
2021/08/30 08:52:20;;;;;;;8.75;4.50;;;;;;;21.64;52.45;97729.81;5072475;28;20027;-78
2021/08/30 08:54:47;;;;;;;7.03;3.58;;;;;;;23.12;49.32;97727.47;5073560;28;20017;-77
2021/08/30 08:57:13;;;;;;;3.83;3.45;;;;;;;23.13;47.76;97727.06;5055557;28;20041;-78
2021/08/30 08:59:40;;;;;;;3.45;3.00;;;;;;;24.21;45.44;97733.22;5073745;28;20568;-78
2021/08/30 09:02:07;;;;;;;5.32;3.47;;;;;;;23.38;47.18;97728.13;5073164;28;20052;-75
2021/08/30 09:04:34;;;;;;;3.22;2.92;;;;;;;21.08;53.18;97724.03;5073364;28;20066;-75
2021/08/30 09:07:11;;;;;;;4.20;3.05;;;;;;;21.12;51.95;97716.59;5072909;28;20393;-75
2021/08/30 09:09:39;;;;;;;4.63;3.35;;;;;;;21.71;50.87;97709.63;5072785;28;20032;-74
2021/08/30 09:12:06;;;;;;;2.90;2.67;;;;;;;22.96;47.81;97708.16;5063265;28;20190;-74
2021/08/30 09:14:32;;;;;;;2.72;2.42;;;;;;;21.68;50.24;97702.81;5052912;28;20107;-74
2021/08/30 09:17:02;;;;;;;4.50;3.58;;;;;;;19.80;55.92;97705.84;5034855;28;20123;-75
2021/08/30 09:19:28;;;;;;;4.57;3.55;;;;;;;18.86;59.37;97707.84;5051292;28;20040;-73
2021/08/30 09:21:53;;;;;;;7.32;3.58;;;;;;;18.68;60.12;97694.28;5052312;28;20116;-73
2021/08/30 09:24:21;;;;;;;5.25;3.13;;;;;;;19.27;59.10;97699.00;5051957;28;20028;-74
2021/08/30 09:26:51;;;;;;;5.85;3.15;;;;;;;19.40;58.60;97700.53;5052335;28;20021;-73
2021/08/30 09:29:22;;;;;;;7.65;3.55;;;;;;;20.13;57.23;97703.44;5052770;28;20021;-73
2021/08/30 09:32:14;;;;;;;3.38;2.83;;;;;;;22.01;51.77;97704.94;5034247;28;20040;-74
2021/08/30 09:34:44;;;;;;;7.95;2.88;;;;;;;23.13;48.26;97704.75;5050971;28;20037;-74
2021/08/30 09:37:24;;;;;;;5.47;3.15;;;;;;;24.20;45.63;97710.03;5067508;28;20024;-73
2021/08/30 09:39:53;;;;;;;3.88;2.83;;;;;;;23.52;45.91;97693.16;5070398;28;20029;-74
2021/08/30 09:42:19;;;;;;;4.28;2.72;;;;;;;25.18;41.97;97694.03;5070898;28;20032;-75
2021/08/30 09:44:45;;;;;;;6.10;3.00;;;;;;;23.30;45.38;97698.53;5053342;28;20028;-75
2021/08/30 09:47:15;;;;;;;3.75;2.45;;;;;;;21.14;50.93;97682.84;5071224;28;20028;-75
2021/08/30 09:49:41;;;;;;;3.60;2.85;;;;;;;20.20;53.41;97692.47;5069754;28;20516;-75
2021/08/30 09:52:08;;;;;;;4.43;2.60;;;;;;;19.67;55.75;97687.72;5071455;28;20024;-75
2021/08/30 09:54:35;;;;;;;5.13;2.40;;;;;;;19.25;57.25;97671.63;5069281;28;20037;-74
2021/08/30 09:57:02;;;;;;;7.47;3.42;;;;;;;19.26;57.73;97670.44;5070574;28;20029;-74
2021/08/30 09:59:28;;;;;;;3.60;2.88;;;;;;;19.90;56.38;97660.06;5071350;28;20036;-74
2021/08/30 10:01:55;;;;;;;2.53;2.30;;;;;;;19.13;58.49;97662.59;5070852;28;20107;-72
2021/08/30 10:04:21;;;;;;;5.57;2.58;;;;;;;19.44;57.61;97670.94;5052031;28;20077;-73
2021/08/30 10:06:49;;;;;;;4.65;3.03;;;;;;;19.66;56.95;97661.94;5067681;28;20028;-73
2021/08/30 10:09:19;;;;;;;6.53;2.75;;;;;;;19.90;56.32;97663.66;5068988;28;20035;-73
2021/08/30 10:11:46;;;;;;;6.63;2.80;;;;;;;19.64;57.24;97660.69;5069391;28;20044;-74
2021/08/30 10:14:18;;;;;;;3.13;2.35;;;;;;;19.61;57.31;97661.38;5051214;28;20017;-74
2021/08/30 10:16:45;;;;;;;6.63;2.85;;;;;;;20.05;56.51;97657.22;5068472;28;20030;-75
2021/08/30 10:19:11;;;;;;;4.28;2.75;;;;;;;20.16;56.74;97665.81;5068938;28;20119;-74
2021/08/30 10:21:45;;;;;;;5.40;2.65;;;;;;;20.39;54.93;97654.78;5068680;28;20757;-73
2021/08/30 10:24:15;;;;;;;4.40;2.28;;;;;;;20.32;56.11;97665.75;5068926;28;20029;-73
2021/08/30 10:26:43;;;;;;;3.05;2.58;;;;;;;19.89;56.98;97655.69;5068673;28;20055;-73
2021/08/30 10:29:11;;;;;;;3.22;2.80;;;;;;;20.23;56.63;97660.41;5069303;28;20085;-75
2021/08/30 10:31:48;;;;;;;6.60;2.67;;;;;;;20.05;56.54;97660.00;5066430;28;20134;-75
2021/08/30 10:34:34;;;;;;;4.60;2.92;;;;;;;19.96;57.24;97661.38;5051511;28;20033;-74
2021/08/30 10:37:02;;;;;;;4.35;2.55;;;;;;;20.42;56.66;97656.84;5066463;28;20037;-75
2021/08/30 10:39:41;;;;;;;4.20;2.55;;;;;;;20.53;55.87;97653.09;5050374;28;20040;-74
2021/08/30 10:42:11;;;;;;;8.45;2.88;;;;;;;20.43;56.29;97650.09;5056964;28;20107;-74
2021/08/30 10:44:54;;;;;;;4.28;2.85;;;;;;;20.75;55.35;97655.09;5051493;28;20028;-75
2021/08/30 10:47:22;;;;;;;7.20;3.00;;;;;;;;;;5070138;28;20505;-74
2021/08/30 10:49:50;;;;;;;4.40;3.13;;;;;;;20.89;54.53;97646.22;5050934;28;20393;-74
2021/08/30 10:52:18;;;;;;;4.97;2.92;;;;;;;21.06;53.44;97651.28;5068562;28;20060;-74
2021/08/30 10:55:00;;;;;;;4.97;2.42;;;;;;;21.92;51.69;97645.94;5066274;28;20031;-74
2021/08/30 10:57:36;;;;;;;3.78;2.47;;;;;;;22.38;49.43;97652.09;5047813;28;20108;-74
2021/08/30 11:00:07;;;;;;;4.18;2.17;;;;;;;22.19;50.27;97650.25;5066514;28;20465;-75
2021/08/30 11:02:37;;;;;;;4.85;2.58;;;;;;;22.25;49.92;97659.09;5068455;28;20048;-75
2021/08/30 11:05:04;;;;;;;7.30;2.25;;;;;;;21.84;51.03;97655.31;5065891;28;20528;-74
2021/08/30 11:07:30;;;;;;;5.65;2.42;;;;;;;21.08;52.83;97657.25;5067391;28;20040;-74
2021/08/30 11:09:55;;;;;;;9.32;2.97;;;;;;;20.85;54.38;97659.25;5068428;28;20029;-74
2021/08/30 11:12:21;;;;;;;4.63;2.72;;;;;;;20.71;55.23;97659.78;5065659;28;20020;-73
2021/08/30 11:14:57;;;;;;;6.05;2.20;;;;;;;20.66;56.73;97656.50;5068347;28;20021;-74
2021/08/30 11:17:35;;;;;;;4.57;2.58;;;;;;;20.58;56.94;97657.56;5065927;28;20028;-74
2021/08/30 11:20:01;;;;;;;10.70;2.90;;;;;;;20.27;57.90;97666.84;5069099;28;20083;-74
2021/08/30 11:22:27;;;;;;;6.78;2.78;;;;;;;20.15;59.00;97659.44;5068633;28;20024;-73
2021/08/30 11:24:53;;;;;;;6.47;2.55;;;;;;;20.15;59.45;97659.44;5068637;28;20032;-73
2021/08/30 11:27:21;;;;;;;3.53;3.05;;;;;;;19.91;60.17;97659.72;5069110;28;20433;-75
2021/08/30 11:29:51;;;;;;;2.20;1.70;;;;;;;19.92;61.21;97655.78;5068438;28;20361;-75
2021/08/30 11:32:19;;;;;;;7.05;2.35;;;;;;;20.16;60.36;97649.13;5068612;28;21006;-75
2021/08/30 11:34:46;;;;;;;4.97;1.88;;;;;;;20.24;59.84;97654.47;5065796;28;20052;-75